Data for 02/13/2016

Time Sea-Level Adjusted Pressure Absolute Pressure Temperature Relative Humidity Dew Point   
(mb) (inHg) (mb) (inHg) (C) (F) (%) (C) (F)
00:05 1019 30.09 848 25.04 5.2 41.3 56 -2.9 26.9
00:10 1019 30.09 848 25.04 4.8 40.7 56 -3.3 26.1
00:15 1019 30.09 848 25.04 4.9 40.8 58 -2.6 27.3
00:20 1019 30.09 848 25.04 4.6 40.2 58 -2.9 26.9
00:25 1019 30.09 848 25.04 4.6 40.2 59 -2.8 27
00:30 1019 30.09 848 25.04 4.4 39.9 60 -2.7 27.1
00:35 1019 30.09 848 25.04 4.2 39.6 61 -2.7 27.1
00:40 1019 30.09 848 25.04 4.1 39.4 61 -2.7 27.2
00:45 1019 30.09 848 25.04 4.1 39.4 60 -3 26.6
00:50 1019 30.09 848 25.04 4.4 39.9 58 -3.1 26.5
00:55 1019 30.09 848 25.04 4.6 40.3 59 -2.7 27.1
01:00 1019 30.09 848 25.04 4.6 40.3 58 -2.9 26.8
01:05 1019 30.09 848 25.04 4.8 40.6 58 -2.8 27
01:10 1019 30.09 848 25.04 4.6 40.2 58 -3.1 26.4
01:15 1019 30.09 848 25.04 4.6 40.3 57 -3.2 26.2
01:20 1019 30.09 848 25.04 4.6 40.2 59 -2.7 27.2
01:25 1019 30.09 848 25.04 4.2 39.6 61 -2.6 27.4
01:30 1019 30.09 848 25.04 3.8 38.9 61 -2.9 26.8
01:35 1019 30.09 848 25.04 3.9 39.1 62 -2.7 27.2
01:40 1019 30.09 848 25.04 3.6 38.6 62 -2.9 26.7
01:45 1019 30.09 848 25.04 3.8 38.8 63 -2.7 27.1
01:50 1019 30.09 848 25.04 3.7 38.7 61 -3.1 26.5
01:55 1019 30.09 848 25.04 4.1 39.3 60 -2.9 26.8
02:00 1019 30.09 848 25.04 3.9 39.1 62 -2.8 27
02:05 1019 30.09 848 25.04 3.8 38.8 62 -2.8 27
02:10 1018 30.06 848 25.04 3.5 38.4 62 -2.9 26.7
02:15 1018 30.06 848 25.04 3.5 38.3 64 -2.8 27
02:20 1018 30.06 847 25.01 3.8 38.9 60 -3.2 26.2
02:25 1018 30.06 847 25.01 4.7 40.5 59 -2.6 27.3
02:30 1018 30.06 847 25.01 4.7 40.4 57 -3 26.6
02:35 1018 30.06 847 25.01 4.8 40.6 58 -2.7 27.1
02:40 1018 30.06 847 25.01 4.8 40.7 58 -2.7 27.1
02:45 1018 30.06 847 25.01 4.7 40.4 59 -2.6 27.4
02:50 1018 30.06 847 25.01 4.1 39.4 61 -2.7 27.1
02:55 1018 30.06 847 25.01 4.4 39.9 61 -2.6 27.4
03:00 1018 30.06 847 25.01 4.1 39.4 62 -2.5 27.5
03:05 1018 30.06 847 25.01 3.8 38.9 64 -2.4 27.7
03:10 1018 30.06 847 25.01 3.5 38.2 64 -2.7 27.1
03:15 1018 30.06 847 25.01 3.5 38.2 65 -2.6 27.4
03:20 1018 30.06 847 25.01 3.4 38.1 65 -2.5 27.4
03:25 1018 30.06 847 25.01 3.4 38.1 64 -2.7 27.1
03:30 1018 30.06 847 25.01 3.6 38.5 64 -2.6 27.3
03:35 1018 30.06 847 25.01 3.5 38.3 65 -2.5 27.5
03:40 1018 30.06 847 25.01 3.4 38.1 65 -2.6 27.3
03:45 1018 30.06 847 25.01 3.7 38.6 62 -2.9 26.8
03:50 1017 30.03 847 25.01 3.8 38.9 61 -3 26.6
03:55 1017 30.03 847 25.01 4 39.2 60 -2.9 26.7
04:00 1017 30.03 846 24.98 4.1 39.3 60 -2.9 26.8
04:05 1017 30.03 846 24.98 4 39.2 60 -3 26.6
04:10 1017 30.03 846 24.98 4.2 39.6 61 -2.6 27.3
04:15 1017 30.03 846 24.98 4.1 39.3 58 -3.5 25.7
04:20 1017 30.03 846 24.98 4.5 40.1 56 -3.6 25.4
04:25 1017 30.03 846 24.98 4.5 40.2 56 -3.5 25.8
04:30 1017 30.03 846 24.98 4.7 40.4 53 -4.2 24.4
04:35 1017 30.03 846 24.98 4.9 40.9 54 -3.6 25.5
04:40 1017 30.03 846 24.98 5 41 53 -3.9 25
04:45 1017 30.03 846 24.98 5.1 41.2 52 -4 24.7
04:50 1017 30.03 846 24.98 5.2 41.4 51 -4.1 24.6
04:55 1017 30.03 846 24.98 5.2 41.3 52 -3.9 25.1
05:00 1017 30.03 846 24.98 5.1 41.1 54 -3.4 25.8
05:05 1017 30.03 846 24.98 4.7 40.5 56 -3.3 26.1
05:10 1016 30 846 24.98 4.2 39.6 57 -3.5 25.6
05:15 1016 30 846 24.98 4 39.3 58 -3.5 25.7
05:20 1016 30 846 24.98 3.8 38.9 58 -3.8 25.2
05:25 1016 30 845 24.95 4 39.1 57 -3.7 25.4
05:30 1016 30 845 24.95 4 39.1 55 -4.3 24.3
05:35 1016 30 845 24.95 4.1 39.4 56 -3.8 25.2
05:40 1016 30 845 24.95 4.2 39.5 54 -4.3 24.3
05:45 1016 30 845 24.95 4.6 40.2 51 -4.6 23.7
05:50 1016 30 845 24.95 4.9 40.7 50 -4.7 23.6
05:55 1016 30 845 24.95 4.8 40.7 50 -4.8 23.3
06:00 1016 30 845 24.95 4.9 40.8 50 -4.7 23.5
06:05 1016 30 845 24.95 4.8 40.7 50 -4.8 23.3
06:10 1016 30 845 24.95 4.9 40.9 51 -4.4 24.1
06:15 1016 30 845 24.95 4.8 40.6 52 -4.3 24.2
06:20 1016 30 845 24.95 4.7 40.5 51 -4.6 23.7
06:25 1016 30 845 24.95 4.8 40.6 51 -4.6 23.7
06:30 1016 30 845 24.95 4.9 40.7 53 -3.9 24.9
06:35 1016 30 845 24.95 5 41 49 -4.9 23.2
06:40 1016 30 845 24.95 5.4 41.7 48 -4.7 23.5
06:45 1016 30 845 24.95 5.4 41.7 48 -4.8 23.4
06:50 1016 30 846 24.98 5 41 60 -2.2 28
06:55 1016 30 846 24.98 3.1 37.7 63 -3.2 26.2
07:00 1016 30 846 24.98 2.7 36.9 65 -3.1 26.5
07:05 1016 30 846 24.98 2.3 36.1 70 -2.6 27.3
07:10 1016 30 846 24.98 1.5 34.8 74 -2.6 27.3
07:15 1016 30 846 24.98 1.4 34.6 73 -3 26.7
07:20 1016 30 845 24.95 1.9 35.4 67 -3.6 25.6
07:25 1016 30 845 24.95 2.6 36.6 65 -3.3 26.1
07:30 1016 30 845 24.95 3.1 37.6 62 -3.5 25.8
07:35 1016 30 845 24.95 3 37.4 67 -2.5 27.5
07:40 1016 30 845 24.95 2.3 36.2 64 -3.8 25.1
07:45 1016 30 845 24.95 2.9 37.2 62 -3.6 25.5
07:50 1015 29.97 845 24.95 3.2 37.8 60 -3.7 25.3
07:55 1015 29.97 845 24.95 3.6 38.4 58 -4 24.9
08:00 1015 29.97 845 24.95 3.9 39 57 -3.9 25
08:05 1015 29.97 844 24.92 3.9 39 57 -3.8 25.2
08:10 1015 29.97 844 24.92 3.9 38.9 57 -4 24.8
08:15 1015 29.97 844 24.92 4 39.2 54 -4.4 24.1
08:20 1015 29.97 844 24.92 4.4 39.9 53 -4.4 24.1
08:25 1015 29.97 844 24.92 4.5 40.1 53 -4.3 24.2
08:30 1015 29.97 844 24.92 4.6 40.2 53 -4.1 24.7
08:35 1015 29.97 844 24.92 4 39.3 56 -4 24.7
08:40 1015 29.97 844 24.92 3.8 38.8 57 -4 24.8
08:45 1015 29.97 844 24.92 3.8 38.8 56 -4.1 24.6
08:50 1015 29.97 844 24.92 3.8 38.9 56 -4.2 24.5
08:55 1015 29.97 844 24.92 4.1 39.4 57 -3.7 25.4
09:00 1015 29.97 845 24.95 3.9 39 58 -3.6 25.5
09:05 1016 30 845 24.95 3.6 38.4 59 -3.8 25.1
09:10 1016 30 845 24.95 3.4 38.2 59 -3.8 25.2
09:15 1016 30 845 24.95 3.3 37.9 61 -3.4 25.8
09:20 1016 30 845 24.95 2.9 37.3 65 -3 26.6
09:25 1016 30 845 24.95 2.6 36.8 69 -2.5 27.6
09:30 1016 30 845 24.95 2.4 36.3 72 -2.1 28.2
09:35 1016 30 845 24.95 2.2 35.9 74 -2.1 28.3
09:40 1016 30 846 24.98 2 35.6 75 -1.9 28.6
09:45 1017 30.03 846 24.98 1.7 35.1 81 -1.2 29.8
09:50 1017 30.03 847 25.01 1.2 34.2 87 -0.7 30.8
09:55 1018 30.06 847 25.01 0.6 33.1 90 -0.8 30.5
10:00 1018 30.06 847 25.01 0.2 32.3 92 -1 30.3
10:05 1018 30.06 847 25.01 0 32 93 -1 30.2
10:10 1018 30.06 847 25.01 -0.1 31.8 93 -1 30.1
10:15 1018 30.06 847 25.01 -0.1 31.8 94 -1 30.3
10:20 1019 30.09 848 25.04 -0.1 31.8 94 -0.9 30.4
10:25 1019 30.09 848 25.04 -0.1 31.9 95 -0.9 30.5
10:30 1019 30.09 848 25.04 -0.1 31.9 95 -0.8 30.5
10:35 1019 30.09 848 25.04 -0.1 31.8 95 -0.9 30.5
10:40 1019 30.09 848 25.04 -0.1 31.8 95 -0.9 30.5
10:45 1019 30.09 848 25.04 -0.1 31.8 95 -0.9 30.5
10:50 1019 30.09 848 25.04 -0.1 31.8 95 -0.9 30.5
10:55 1019 30.09 848 25.04 -0.1 31.8 95 -0.8 30.5
11:00 1019 30.09 848 25.04 -0 31.9 95 -0.7 30.7
11:05 1019 30.09 848 25.04 -0 32 95 -0.7 30.7
11:10 1019 30.09 848 25.04 0.1 32.1 95 -0.6 30.9
11:15 1019 30.09 848 25.04 0.1 32.2 95 -0.6 31
11:20 1019 30.09 848 25.04 0.2 32.4 95 -0.5 31.2
11:25 1019 30.09 848 25.04 0.3 32.5 95 -0.4 31.2
11:30 1019 30.09 848 25.04 0.3 32.6 95 -0.3 31.4
11:35 1019 30.09 848 25.04 0.4 32.7 95 -0.3 31.4
11:40 1019 30.09 848 25.04 0.4 32.8 95 -0.2 31.6
11:45 1019 30.09 848 25.04 0.3 32.5 95 -0.4 31.3
11:50 1019 30.09 848 25.04 0.1 32.3 95 -0.6 31
11:55 1019 30.09 848 25.04 0.1 32.1 95 -0.6 30.8
12:00 1019 30.09 848 25.04 0.1 32.2 95 -0.6 30.9
12:05 1019 30.09 848 25.04 0.2 32.4 95 -0.5 31.1
12:10 1019 30.09 848 25.04 0.3 32.6 95 -0.4 31.3
12:15 1019 30.09 848 25.04 0.5 32.8 95 -0.3 31.5
12:20 1019 30.09 848 25.04 0.6 33.2 94 -0.2 31.7
12:25 1019 30.09 848 25.04 0.7 33.3 94 -0.1 31.8
12:30 1019 30.09 848 25.04 0.9 33.7 93 -0.1 31.9
12:35 1019 30.09 848 25.04 1.1 34 92 -0 31.9
12:40 1019 30.09 848 25.04 1.3 34.4 90 -0.1 31.8
12:45 1019 30.09 848 25.04 1.5 34.8 89 -0.1 31.8
12:50 1019 30.09 848 25.04 1.8 35.2 87 -0.1 31.7
12:55 1019 30.09 848 25.04 1.8 35.3 86 -0.3 31.5
13:00 1019 30.09 848 25.04 2.1 35.8 85 -0.2 31.6
13:05 1019 30.09 849 25.07 2.3 36.1 83 -0.3 31.5
13:10 1019 30.09 849 25.07 2.2 36 81 -0.7 30.7
13:15 1019 30.09 849 25.07 2.2 36 77 -1.3 29.6
13:20 1019 30.09 849 25.07 2.4 36.2 76 -1.4 29.5
13:25 1019 30.09 849 25.07 2.4 36.2 74 -1.8 28.7
13:30 1019 30.09 849 25.07 2.2 36 74 -1.9 28.6
13:35 1019 30.09 849 25.07 2.1 35.8 74 -2 28.4
13:40 1019 30.09 849 25.07 2.2 35.9 73 -2.1 28.2
13:45 1019 30.09 849 25.07 2.6 36.6 71 -2.1 28.1
13:50 1019 30.09 849 25.07 2.6 36.7 60 -4.4 24.1
13:55 1019 30.09 849 25.07 3.1 37.5 66 -2.7 27.1
14:00 1019 30.09 849 25.07 2.9 37.3 65 -3.1 26.4
14:05 1019 30.09 849 25.07 2.9 37.2 61 -3.9 25
14:10 1019 30.09 848 25.04 3 37.3 58 -4.5 23.9
14:15 1019 30.09 848 25.04 3 37.4 58 -4.5 23.9
14:20 1019 30.09 848 25.04 2.9 37.2 59 -4.4 24
14:25 1019 30.09 848 25.04 3.2 37.8 55 -5 23
14:30 1019 30.09 848 25.04 3.7 38.6 52 -5.4 22.3
14:35 1019 30.09 848 25.04 3.7 38.6 50 -5.7 21.7
14:40 1019 30.09 848 25.04 3.7 38.6 50 -5.9 21.4
14:45 1019 30.09 848 25.04 3.8 38.8 49 -6 21.3
14:50 1019 30.09 848 25.04 3.9 38.9 49 -5.8 21.6
14:55 1019 30.09 848 25.04 3.8 38.9 49 -5.9 21.4
15:00 1019 30.09 848 25.04 3.8 38.9 48 -6.1 21.1
15:05 1019 30.09 848 25.04 3.9 38.9 50 -5.7 21.8
15:10 1019 30.09 849 25.07 3.9 39 50 -5.6 22
15:15 1019 30.09 849 25.07 4.6 40.2 47 -5.7 21.7
15:20 1019 30.09 849 25.07 4.5 40.1 47 -5.9 21.4
15:25 1019 30.09 849 25.07 4.1 39.4 48 -5.9 21.4
15:30 1019 30.09 849 25.07 3.9 39.1 50 -5.6 21.9
15:35 1020 30.12 849 25.07 4.3 39.7 49 -5.5 22.1
15:40 1020 30.12 849 25.07 4.6 40.4 50 -4.8 23.3
15:45 1020 30.12 849 25.07 4 39.2 53 -4.6 23.7
15:50 1020 30.12 849 25.07 3.7 38.6 55 -4.6 23.7
15:55 1020 30.12 849 25.07 4.4 39.9 50 -5.1 22.9
16:00 1020 30.12 849 25.07 4.9 40.8 49 -4.9 23.2
16:05 1020 30.12 849 25.07 5.1 41.2 49 -4.8 23.4
16:10 1020 30.12 849 25.07 4.8 40.6 51 -4.6 23.7
16:15 1020 30.12 849 25.07 5.1 41.1 48 -5.1 22.8
16:20 1020 30.12 849 25.07 5.1 41.2 48 -5.1 22.9
16:25 1020 30.12 850 25.1 5.5 41.9 45 -5.6 21.9
16:30 1020 30.12 849 25.07 5.1 41.1 45 -5.9 21.3
16:35 1020 30.12 849 25.07 4.5 40.1 47 -5.9 21.3
16:40 1020 30.12 849 25.07 4.3 39.7 47 -5.9 21.4
16:45 1020 30.12 849 25.07 4.5 40.1 48 -5.6 21.9
16:50 1020 30.12 850 25.1 4.8 40.7 47 -5.6 21.9
16:55 1020 30.12 850 25.1 4.7 40.5 47 -5.7 21.8
17:00 1020 30.12 850 25.1 4.5 40 46 -6.1 21
17:05 1020 30.12 850 25.1 4.4 39.9 47 -5.9 21.3
17:10 1020 30.12 850 25.1 4 39.3 49 -5.9 21.5
17:15 1020 30.12 850 25.1 3.8 38.9 49 -5.9 21.4
17:20 1020 30.12 850 25.1 4.1 39.3 48 -5.8 21.5
17:25 1020 30.12 850 25.1 4.3 39.7 45 -6.6 20.1
17:30 1020 30.12 850 25.1 4.7 40.4 43 -6.7 19.9
17:35 1020 30.12 850 25.1 4.7 40.4 42 -7.1 19.1
17:40 1020 30.12 849 25.07 4.5 40 44 -6.6 20.1
17:45 1020 30.12 849 25.07 4.4 39.9 43 -7.1 19.2
17:50 1020 30.12 849 25.07 4.4 39.9 42 -7.4 18.6
17:55 1020 30.12 849 25.07 4.4 40 43 -7.2 19
18:00 1020 30.12 849 25.07 4.2 39.6 44 -6.9 19.6
18:05 1020 30.12 849 25.07 3.7 38.7 45 -7 19.3
18:10 1020 30.12 849 25.07 3.7 38.6 44 -7.5 18.6
18:15 1020 30.12 849 25.07 3.3 38 47 -7 19.4
18:20 1020 30.12 849 25.07 2.7 36.8 48 -7.2 19.1
18:25 1020 30.12 849 25.07 2.2 35.9 49 -7.6 18.4
18:30 1020 30.12 849 25.07 1.8 35.2 50 -7.6 18.3
18:35 1020 30.12 849 25.07 1.3 34.3 51 -7.8 17.9
18:40 1020 30.12 849 25.07 1.1 33.9 51 -8 17.7
18:45 1020 30.12 849 25.07 1.3 34.4 50 -7.9 17.7
18:50 1020 30.12 849 25.07 1.6 34.8 49 -7.9 17.8
18:55 1020 30.12 849 25.07 1.7 35.1 49 -7.8 17.9
19:00 1020 30.12 849 25.07 1.7 35.1 50 -7.6 18.2
19:05 1020 30.12 849 25.07 1.8 35.2 47 -8.4 16.8
19:10 1020 30.12 849 25.07 2.1 35.8 47 -8.1 17.4
19:15 1020 30.12 850 25.1 2 35.5 48 -7.8 18
19:20 1020 30.12 850 25.1 1.4 34.4 49 -8.3 17.1
19:25 1020 30.12 850 25.1 1.7 35.1 45 -8.9 16.1
19:30 1020 30.12 849 25.07 2 35.5 45 -8.9 16
19:35 1020 30.12 849 25.07 2 35.6 45 -8.7 16.4
19:40 1020 30.12 849 25.07 1.9 35.4 45 -9 15.9
19:45 1020 30.12 849 25.07 2 35.6 43 -9.2 15.4
19:50 1020 30.12 849 25.07 2.1 35.8 46 -8.4 16.9
19:55 1020 30.12 849 25.07 1.9 35.4 45 -8.8 16.2
20:00 1020 30.12 849 25.07 1.6 34.9 46 -8.7 16.4
20:05 1020 30.12 850 25.1 1.4 34.6 47 -8.7 16.4
20:10 1020 30.12 850 25.1 1.5 34.7 46 -8.8 16.2
20:15 1020 30.12 850 25.1 1.7 35.1 46 -8.8 16.1
20:20 1020 30.12 850 25.1 1.7 35.1 47 -8.3 17
20:25 1020 30.12 850 25.1 1.6 34.8 49 -8.1 17.5
20:30 1020 30.12 850 25.1 1.6 34.9 48 -8.2 17.2
20:35 1020 30.12 850 25.1 1.7 35.1 49 -8 17.6
20:40 1020 30.12 850 25.1 1.9 35.4 46 -8.6 16.5
20:45 1020 30.12 850 25.1 2.5 36.6 42 -9.2 15.5
20:50 1020 30.12 850 25.1 2.9 37.2 42 -8.8 16.1
20:55 1020 30.12 849 25.07 2.8 37 42 -8.9 16
21:00 1020 30.12 850 25.1 2.8 37 42 -8.9 15.9
21:05 1020 30.12 850 25.1 2.8 37.1 42 -8.8 16.2
21:10 1020 30.12 850 25.1 2.8 37 43 -8.7 16.4
21:15 1020 30.12 849 25.07 2.7 36.9 44 -8.2 17.2
21:20 1020 30.12 849 25.07 2.1 35.8 48 -7.7 18.2
21:25 1020 30.12 849 25.07 1.7 35.1 49 -8 17.6
21:30 1020 30.12 849 25.07 1.7 35.1 50 -7.7 18.1
21:35 1020 30.12 849 25.07 1.7 35 50 -7.6 18.3
21:40 1020 30.12 849 25.07 1.5 34.7 53 -7.2 19.1
21:45 1020 30.12 849 25.07 1.1 34 53 -7.4 18.8
21:50 1020 30.12 849 25.07 0.8 33.4 56 -7.1 19.2
21:55 1020 30.12 849 25.07 0.5 32.9 58 -6.7 19.9
22:00 1020 30.12 849 25.07 0.6 33 56 -7.3 18.8
22:05 1020 30.12 849 25.07 0.8 33.5 54 -7.5 18.5
22:10 1020 30.12 849 25.07 1.1 33.9 50 -8.2 17.3
22:15 1019 30.09 849 25.07 1.6 34.8 47 -8.6 16.6
22:20 1019 30.09 849 25.07 1.9 35.4 47 -8.2 17.3
22:25 1019 30.09 848 25.04 1.8 35.2 48 -8.2 17.3
22:30 1019 30.09 848 25.04 1.8 35.3 47 -8.4 16.9
22:35 1019 30.09 848 25.04 1.9 35.5 46 -8.5 16.7
22:40 1019 30.09 848 25.04 1.9 35.5 46 -8.4 16.9
22:45 1019 30.09 848 25.04 1.9 35.5 48 -8 17.7
22:50 1019 30.09 848 25.04 1.9 35.4 44 -9.1 15.6
22:55 1019 30.09 848 25.04 2 35.7 46 -8.3 17
23:00 1019 30.09 848 25.04 2.1 35.7 44 -9.1 15.6
23:05 1019 30.09 848 25.04 2.1 35.8 45 -8.6 16.4
23:10 1019 30.09 848 25.04 2.1 35.7 45 -8.8 16.2
23:15 1018 30.06 848 25.04 2 35.5 47 -8.3 17.1
23:20 1018 30.06 847 25.01 1.9 35.3 47 -8.2 17.2
23:25 1018 30.06 847 25.01 1.7 35.1 48 -8.2 17.2
23:30 1018 30.06 847 25.01 1.7 35 49 -8.1 17.5
23:35 1018 30.06 847 25.01 1.6 34.8 50 -7.7 18.1
23:40 1018 30.06 847 25.01 0.9 33.7 58 -6.4 20.5
23:45 1018 30.06 847 25.01 0.1 32.2 62 -6.3 20.7
23:50 1018 30.06 847 25.01 -0.1 31.8 62 -6.6 20.1
23:55 1018 30.06 847 25.01 -0 31.9 60 -7 19.5
24:00 1018 30.06 847 25.01 0.1 32.2 54 -8 17.6